SKCL/CLO METAR and TAF weather

Enter ICAO airport designator
Station Type Date Time Source
SKCL METAR 2024/06/16 00:00 UTC NOAA

SKCL 160000Z 01005KT 9999 SCT030 BKN120 22/19 Q1016 NOSIG


Station Type Date Time Source
SKCL Decoded METAR 2024/06/16 00:00 UTC NOAA

Cali / Alfonso Bonillaaragon, Colombia (SKCL) 03-33N 076-23W 969M
Jun 15, 2024 - 08:00 PM EDT / 2024.06.16 0000 UTC
Wind: from the N (010 degrees) at 6 MPH (5 KT):0
Visibility: greater than 7 mile(s):0
Sky conditions: mostly cloudy
Temperature: 71 F (22 C)
Dew Point: 66 F (19 C)
Relative Humidity: 83%
Pressure (altimeter): 30.00 in. Hg (1016 hPa)
ob: SKCL 160000Z 01005KT 9999 SCT030 BKN120 22/19 Q1016 NOSIG
cycle: 0

Station Type Date Time Source
SKCL TAF 2024/06/15 18:49 UTC NOAA